sensor_id;sensor_type;location;lat;lon;timestamp;pressure;altitude;pressure_sealevel;temperature;humidity
34241;BME280;20503;50.200;19.508;2023-03-13T00:01:41;101131.79;;;4.17;80.30
34241;BME280;20503;50.200;19.508;2023-03-13T00:06:44;101141.00;;;4.24;83.46
34241;BME280;20503;50.200;19.508;2023-03-13T00:11:52;101141.72;;;4.34;85.83
34241;BME280;20503;50.200;19.508;2023-03-13T00:16:59;101134.27;;;4.36;89.53
34241;BME280;20503;50.200;19.508;2023-03-13T00:22:07;101130.77;;;4.44;91.67
34241;BME280;20503;50.200;19.508;2023-03-13T00:27:15;101116.06;;;4.46;94.84
34241;BME280;20503;50.200;19.508;2023-03-13T00:32:22;101114.58;;;4.52;96.77
34241;BME280;20503;50.200;19.508;2023-03-13T00:37:30;101109.00;;;4.53;100.00
34241;BME280;20503;50.200;19.508;2023-03-13T00:42:38;101100.35;;;4.58;100.00
34241;BME280;20503;50.200;19.508;2023-03-13T00:47:46;101098.33;;;4.60;100.00
34241;BME280;20503;50.200;19.508;2023-03-13T00:52:54;101092.42;;;4.64;100.00
34241;BME280;20503;50.200;19.508;2023-03-13T00:58:02;101067.20;;;4.64;100.00
34241;BME280;20503;50.200;19.508;2023-03-13T01:03:10;101069.38;;;4.60;100.00
34241;BME280;20503;50.200;19.508;2023-03-13T01:08:17;101060.56;;;4.58;100.00
34241;BME280;20503;50.200;19.508;2023-03-13T01:13:26;101069.52;;;4.59;100.00
34241;BME280;20503;50.200;19.508;2023-03-13T01:18:34;101063.41;;;4.49;100.00
34241;BME280;20503;50.200;19.508;2023-03-13T01:23:42;101075.48;;;4.62;100.00
34241;BME280;20503;50.200;19.508;2023-03-13T01:28:49;101073.63;;;4.63;100.00
34241;BME280;20503;50.200;19.508;2023-03-13T01:34:00;101072.28;;;4.67;100.00
34241;BME280;20503;50.200;19.508;2023-03-13T01:39:05;101081.43;;;4.66;100.00
34241;BME280;20503;50.200;19.508;2023-03-13T01:44:22;101097.36;;;4.69;100.00
34241;BME280;20503;50.200;19.508;2023-03-13T01:49:30;101095.01;;;4.74;100.00
34241;BME280;20503;50.200;19.508;2023-03-13T01:59:57;101084.89;;;4.84;100.00
34241;BME280;20503;50.200;19.508;2023-03-13T02:05:05;101086.59;;;4.93;100.00
34241;BME280;20503;50.200;19.508;2023-03-13T02:10:09;101085.27;;;4.97;100.00
34241;BME280;20503;50.200;19.508;2023-03-13T02:15:16;101096.13;;;5.05;100.00
34241;BME280;20503;50.200;19.508;2023-03-13T02:20:22;101094.44;;;5.04;100.00
34241;BME280;20503;50.200;19.508;2023-03-13T02:30:38;101102.09;;;5.16;100.00
34241;BME280;20503;50.200;19.508;2023-03-13T02:35:44;101111.77;;;5.19;100.00
34241;BME280;20503;50.200;19.508;2023-03-13T02:40:48;101129.41;;;5.23;100.00
34241;BME280;20503;50.200;19.508;2023-03-13T02:51:12;101125.71;;;5.32;100.00
34241;BME280;20503;50.200;19.508;2023-03-13T02:56:16;101122.13;;;5.31;100.00
34241;BME280;20503;50.200;19.508;2023-03-13T03:01:20;101127.22;;;5.34;100.00
34241;BME280;20503;50.200;19.508;2023-03-13T03:06:23;101126.91;;;5.37;100.00
34241;BME280;20503;50.200;19.508;2023-03-13T03:11:26;101142.34;;;5.37;100.00
34241;BME280;20503;50.200;19.508;2023-03-13T03:16:33;101142.34;;;5.37;100.00
34241;BME280;20503;50.200;19.508;2023-03-13T03:21:40;101148.62;;;5.37;100.00
34241;BME280;20503;50.200;19.508;2023-03-13T03:26:48;101140.64;;;5.36;100.00
34241;BME280;20503;50.200;19.508;2023-03-13T03:31:56;101136.38;;;5.33;100.00
34241;BME280;20503;50.200;19.508;2023-03-13T03:37:04;101137.92;;;5.36;100.00
34241;BME280;20503;50.200;19.508;2023-03-13T03:42:11;101137.77;;;5.37;100.00
34241;BME280;20503;50.200;19.508;2023-03-13T03:47:19;101134.87;;;5.39;100.00
34241;BME280;20503;50.200;19.508;2023-03-13T03:52:27;101139.27;;;5.40;100.00
34241;BME280;20503;50.200;19.508;2023-03-13T03:57:35;101137.92;;;5.36;100.00
34241;BME280;20503;50.200;19.508;2023-03-13T04:02:43;101140.48;;;5.37;100.00
34241;BME280;20503;50.200;19.508;2023-03-13T04:07:50;101137.77;;;5.37;100.00
34241;BME280;20503;50.200;19.508;2023-03-13T04:12:58;101138.07;;;5.34;100.00
34241;BME280;20503;50.200;19.508;2023-03-13T04:18:06;101146.39;;;5.33;100.00
34241;BME280;20503;50.200;19.508;2023-03-13T04:23:13;101135.89;;;5.30;100.00
34241;BME280;20503;50.200;19.508;2023-03-13T04:28:20;101133.33;;;5.28;100.00
34241;BME280;20503;50.200;19.508;2023-03-13T04:33:28;101140.98;;;5.33;100.00
34241;BME280;20503;50.200;19.508;2023-03-13T04:38:36;101147.09;;;5.35;100.00
34241;BME280;20503;50.200;19.508;2023-03-13T04:43:43;101140.64;;;5.36;100.00
34241;BME280;20503;50.200;19.508;2023-03-13T04:48:52;101149.80;;;5.35;100.00
34241;BME280;20503;50.200;19.508;2023-03-13T04:54:00;101140.79;;;5.34;100.00
34241;BME280;20503;50.200;19.508;2023-03-13T04:59:12;101139.27;;;5.32;100.00
34241;BME280;20503;50.200;19.508;2023-03-13T05:04:16;101123.14;;;5.30;100.00
34241;BME280;20503;50.200;19.508;2023-03-13T05:09:23;101117.23;;;5.35;100.00
34241;BME280;20503;50.200;19.508;2023-03-13T05:14:30;101115.20;;;5.37;100.00
34241;BME280;20503;50.200;19.508;2023-03-13T05:19:38;101124.36;;;5.36;100.00
34241;BME280;20503;50.200;19.508;2023-03-13T05:24:46;101119.27;;;5.41;100.00
34241;BME280;20503;50.200;19.508;2023-03-13T05:29:53;101106.03;;;5.38;100.00
34241;BME280;20503;50.200;19.508;2023-03-13T05:35:01;101115.86;;;5.39;100.00
34241;BME280;20503;50.200;19.508;2023-03-13T05:40:09;101109.61;;;5.46;100.00
34241;BME280;20503;50.200;19.508;2023-03-13T05:45:16;101106.21;;;5.44;100.00
34241;BME280;20503;50.200;19.508;2023-03-13T05:50:24;101104.37;;;5.45;100.00
34241;BME280;20503;50.200;19.508;2023-03-13T05:55:32;101084.48;;;5.28;100.00
34241;BME280;20503;50.200;19.508;2023-03-13T06:00:39;101094.84;;;5.41;100.00
34241;BME280;20503;50.200;19.508;2023-03-13T06:05:47;101100.45;;;5.39;100.00
34241;BME280;20503;50.200;19.508;2023-03-13T06:10:58;101108.07;;;5.36;100.00
34241;BME280;20503;50.200;19.508;2023-03-13T06:16:02;101093.48;;;5.37;100.00
34241;BME280;20503;50.200;19.508;2023-03-13T06:21:11;101086.53;;;5.50;100.00
34241;BME280;20503;50.200;19.508;2023-03-13T06:26:18;101090.78;;;5.76;100.00
34241;BME280;20503;50.200;19.508;2023-03-13T06:31:26;101091.13;;;6.05;100.00
34241;BME280;20503;50.200;19.508;2023-03-13T06:36:33;101084.52;;;6.08;100.00
34241;BME280;20503;50.200;19.508;2023-03-13T06:41:41;101086.70;;;6.20;100.00
34241;BME280;20503;50.200;19.508;2023-03-13T06:46:49;101081.91;;;6.30;100.00
34241;BME280;20503;50.200;19.508;2023-03-13T06:51:57;101070.59;;;6.65;100.00
34241;BME280;20503;50.200;19.508;2023-03-13T06:57:04;101077.08;;;6.95;100.00
34241;BME280;20503;50.200;19.508;2023-03-13T07:02:13;101073.13;;;7.28;100.00
34241;BME280;20503;50.200;19.508;2023-03-13T07:07:20;101075.57;;;7.67;100.00
34241;BME280;20503;50.200;19.508;2023-03-13T07:12:27;101075.11;;;7.78;100.00
34241;BME280;20503;50.200;19.508;2023-03-13T07:17:35;101070.19;;;8.48;100.00
34241;BME280;20503;50.200;19.508;2023-03-13T07:22:43;101071.28;;;8.97;100.00
34241;BME280;20503;50.200;19.508;2023-03-13T07:27:51;101067.96;;;9.36;100.00
34241;BME280;20503;50.200;19.508;2023-03-13T07:32:58;101053.90;;;8.83;100.00
34241;BME280;20503;50.200;19.508;2023-03-13T07:38:05;101062.96;;;9.05;100.00
34241;BME280;20503;50.200;19.508;2023-03-13T07:43:13;101070.49;;;9.80;100.00
34241;BME280;20503;50.200;19.508;2023-03-13T07:48:22;101059.02;;;11.26;94.93
34241;BME280;20503;50.200;19.508;2023-03-13T07:53:29;101053.68;;;11.59;85.14
34241;BME280;20503;50.200;19.508;2023-03-13T07:58:38;101055.82;;;11.10;84.72
34241;BME280;20503;50.200;19.508;2023-03-13T08:03:45;101050.09;;;11.65;81.41
34241;BME280;20503;50.200;19.508;2023-03-13T08:08:56;101045.66;;;12.29;77.03
34241;BME280;20503;50.200;19.508;2023-03-13T08:14:00;101045.47;;;12.30;75.97
34241;BME280;20503;50.200;19.508;2023-03-13T08:19:09;101046.67;;;13.23;71.92
34241;BME280;20503;50.200;19.508;2023-03-13T08:24:16;101042.73;;;12.17;74.59
34241;BME280;20503;50.200;19.508;2023-03-13T08:29:23;101033.96;;;11.36;79.16
34241;BME280;20503;50.200;19.508;2023-03-13T08:34:31;101023.20;;;11.28;81.08
34241;BME280;20503;50.200;19.508;2023-03-13T08:39:39;101018.76;;;10.67;83.23
34241;BME280;20503;50.200;19.508;2023-03-13T08:44:47;101016.59;;;11.03;82.15
34241;BME280;20503;50.200;19.508;2023-03-13T08:49:55;101014.89;;;11.94;77.39
34241;BME280;20503;50.200;19.508;2023-03-13T08:55:09;101003.01;;;12.26;73.83
34241;BME280;20503;50.200;19.508;2023-03-13T09:00:13;101010.86;;;12.03;74.37
34241;BME280;20503;50.200;19.508;2023-03-13T09:05:19;101003.69;;;12.85;70.74
34241;BME280;20503;50.200;19.508;2023-03-13T09:10:27;100994.93;;;12.51;71.73
34241;BME280;20503;50.200;19.508;2023-03-13T09:15:35;101004.61;;;12.66;71.46
34241;BME280;20503;50.200;19.508;2023-03-13T09:20:43;100999.31;;;12.65;70.99
34241;BME280;20503;50.200;19.508;2023-03-13T09:25:55;100996.74;;;13.26;70.11
34241;BME280;20503;50.200;19.508;2023-03-13T09:31:05;100998.38;;;12.97;68.82
34241;BME280;20503;50.200;19.508;2023-03-13T09:36:09;100993.29;;;13.68;67.70
34241;BME280;20503;50.200;19.508;2023-03-13T09:41:21;100982.51;;;13.91;65.03
34241;BME280;20503;50.200;19.508;2023-03-13T09:46:33;100992.47;;;12.17;69.93
34241;BME280;20503;50.200;19.508;2023-03-13T09:51:39;100980.98;;;12.52;69.66
34241;BME280;20503;50.200;19.508;2023-03-13T09:56:49;100977.60;;;13.07;67.66
34241;BME280;20503;50.200;19.508;2023-03-13T10:01:54;100960.51;;;12.55;69.68
34241;BME280;20503;50.200;19.508;2023-03-13T10:06:58;100962.52;;;13.22;67.52
34241;BME280;20503;50.200;19.508;2023-03-13T10:22:30;100958.21;;;13.33;66.70
34241;BME280;20503;50.200;19.508;2023-03-13T10:32:45;100917.99;;;13.63;64.72
34241;BME280;20503;50.200;19.508;2023-03-13T10:37:47;100925.13;;;13.46;66.22
34241;BME280;20503;50.200;19.508;2023-03-13T10:42:51;100906.73;;;13.64;65.47
34241;BME280;20503;50.200;19.508;2023-03-13T10:48:02;100942.90;;;13.43;64.97
34241;BME280;20503;50.200;19.508;2023-03-13T10:53:54;100912.24;;;13.40;65.20
34241;BME280;20503;50.200;19.508;2023-03-13T11:03:35;100896.91;;;13.26;63.83
34241;BME280;20503;50.200;19.508;2023-03-13T11:08:36;100892.95;;;13.46;63.82
34241;BME280;20503;50.200;19.508;2023-03-13T11:13:42;100872.97;;;13.33;63.36
34241;BME280;20503;50.200;19.508;2023-03-13T11:18:56;100872.27;;;13.86;61.72
34241;BME280;20503;50.200;19.508;2023-03-13T11:24:06;100856.37;;;13.88;60.16
34241;BME280;20503;50.200;19.508;2023-03-13T11:29:20;100848.25;;;14.11;61.49
34241;BME280;20503;50.200;19.508;2023-03-13T11:34:30;100859.94;;;13.46;60.01
34241;BME280;20503;50.200;19.508;2023-03-13T11:55:27;100802.91;;;12.87;60.84
34241;BME280;20503;50.200;19.508;2023-03-13T12:00:39;100781.79;;;13.12;58.53
34241;BME280;20503;50.200;19.508;2023-03-13T12:05:55;100768.93;;;12.81;58.77
34241;BME280;20503;50.200;19.508;2023-03-13T12:16:20;100777.72;;;12.96;57.44
34241;BME280;20503;50.200;19.508;2023-03-13T12:21:29;100773.03;;;13.21;56.96
34241;BME280;20503;50.200;19.508;2023-03-13T12:26:42;100785.72;;;13.22;56.13
34241;BME280;20503;50.200;19.508;2023-03-13T12:32:02;100755.43;;;13.46;55.63
34241;BME280;20503;50.200;19.508;2023-03-13T12:37:04;100736.51;;;13.38;55.98
34241;BME280;20503;50.200;19.508;2023-03-13T12:47:30;100733.97;;;13.37;54.79
34241;BME280;20503;50.200;19.508;2023-03-13T13:08:25;100759.70;;;13.00;59.66
34241;BME280;20503;50.200;19.508;2023-03-13T13:13:30;100740.80;;;12.24;65.49
34241;BME280;20503;50.200;19.508;2023-03-13T13:18:33;100732.95;;;11.96;67.01
34241;BME280;20503;50.200;19.508;2023-03-13T13:23:39;100731.09;;;11.84;68.54
34241;BME280;20503;50.200;19.508;2023-03-13T13:28:55;100727.72;;;11.82;70.80
34241;BME280;20503;50.200;19.508;2023-03-13T13:33:58;100734.57;;;11.60;71.92
34241;BME280;20503;50.200;19.508;2023-03-13T13:38:59;100723.61;;;11.47;73.30
34241;BME280;20503;50.200;19.508;2023-03-13T13:49:19;100702.57;;;11.34;78.86
34241;BME280;20503;50.200;19.508;2023-03-13T13:54:33;100704.66;;;11.45;76.25
34241;BME280;20503;50.200;19.508;2023-03-13T13:59:41;100692.57;;;11.53;73.94
34241;BME280;20503;50.200;19.508;2023-03-13T14:04:54;100685.66;;;11.57;74.06
34241;BME280;20503;50.200;19.508;2023-03-13T14:10:11;100682.67;;;11.52;74.97
34241;BME280;20503;50.200;19.508;2023-03-13T14:15:18;100669.66;;;11.41;74.82
34241;BME280;20503;50.200;19.508;2023-03-13T14:20:27;100667.36;;;11.38;74.93
34241;BME280;20503;50.200;19.508;2023-03-13T14:25:54;100671.20;;;11.24;74.53
34241;BME280;20503;50.200;19.508;2023-03-13T14:30:48;100677.95;;;11.21;74.62
34241;BME280;20503;50.200;19.508;2023-03-13T14:35:50;100676.27;;;11.14;77.00
34241;BME280;20503;50.200;19.508;2023-03-13T14:40:53;100669.15;;;11.00;76.40
34241;BME280;20503;50.200;19.508;2023-03-13T14:45:56;100670.19;;;10.99;75.61
34241;BME280;20503;50.200;19.508;2023-03-13T14:51:08;100671.05;;;11.00;77.89
34241;BME280;20503;50.200;19.508;2023-03-13T14:56:15;100671.94;;;10.81;82.86
34241;BME280;20503;50.200;19.508;2023-03-13T15:01:25;100656.96;;;10.70;81.56
34241;BME280;20503;50.200;19.508;2023-03-13T15:06:27;100651.49;;;10.70;81.45
34241;BME280;20503;50.200;19.508;2023-03-13T15:11:31;100666.89;;;10.71;80.66
34241;BME280;20503;50.200;19.508;2023-03-13T15:16:34;100642.66;;;10.68;81.67
34241;BME280;20503;50.200;19.508;2023-03-13T15:21:36;100635.91;;;10.71;81.86
34241;BME280;20503;50.200;19.508;2023-03-13T15:26:38;100631.92;;;10.73;83.09
34241;BME280;20503;50.200;19.508;2023-03-13T15:31:40;100633.19;;;10.77;81.76
34241;BME280;20503;50.200;19.508;2023-03-13T15:36:42;100622.20;;;10.90;83.28
34241;BME280;20503;50.200;19.508;2023-03-13T15:41:44;100628.07;;;10.94;81.60
34241;BME280;20503;50.200;19.508;2023-03-13T15:46:45;100628.73;;;10.89;80.85
34241;BME280;20503;50.200;19.508;2023-03-13T15:51:48;100629.56;;;10.90;79.94
34241;BME280;20503;50.200;19.508;2023-03-13T15:56:51;100608.72;;;10.89;80.02
34241;BME280;20503;50.200;19.508;2023-03-13T16:01:53;100619.92;;;10.74;82.23
34241;BME280;20503;50.200;19.508;2023-03-13T16:06:54;100624.37;;;10.49;83.21
34241;BME280;20503;50.200;19.508;2023-03-13T16:11:58;100622.05;;;10.40;84.03
34241;BME280;20503;50.200;19.508;2023-03-13T16:17:09;100632.17;;;10.39;83.63
34241;BME280;20503;50.200;19.508;2023-03-13T16:22:11;100632.17;;;10.26;85.64
34241;BME280;20503;50.200;19.508;2023-03-13T16:27:17;100622.70;;;10.16;85.92
34241;BME280;20503;50.200;19.508;2023-03-13T16:32:21;100630.47;;;10.12;87.13
34241;BME280;20503;50.200;19.508;2023-03-13T16:37:25;100618.27;;;10.28;85.71
34241;BME280;20503;50.200;19.508;2023-03-13T16:42:26;100619.97;;;10.22;86.31
34241;BME280;20503;50.200;19.508;2023-03-13T16:47:28;100609.64;;;10.05;87.58
34241;BME280;20503;50.200;19.508;2023-03-13T16:52:31;100610.01;;;9.89;89.51
34241;BME280;20503;50.200;19.508;2023-03-13T16:57:33;100603.29;;;9.91;89.54
34241;BME280;20503;50.200;19.508;2023-03-13T17:02:35;100586.45;;;9.88;89.99
34241;BME280;20503;50.200;19.508;2023-03-13T17:07:38;100584.97;;;9.85;90.16
34241;BME280;20503;50.200;19.508;2023-03-13T17:12:40;100584.58;;;9.82;90.96
34241;BME280;20503;50.200;19.508;2023-03-13T17:17:45;100578.05;;;9.83;91.11
34241;BME280;20503;50.200;19.508;2023-03-13T17:22:52;100580.13;;;9.87;90.55
34241;BME280;20503;50.200;19.508;2023-03-13T17:28:01;100580.79;;;9.89;89.85
34241;BME280;20503;50.200;19.508;2023-03-13T17:33:07;100560.59;;;9.84;90.66
34241;BME280;20503;50.200;19.508;2023-03-13T17:38:14;100554.70;;;9.87;90.07
34241;BME280;20503;50.200;19.508;2023-03-13T17:43:22;100554.70;;;9.87;89.30
34241;BME280;20503;50.200;19.508;2023-03-13T17:48:29;100549.23;;;9.80;89.50
34241;BME280;20503;50.200;19.508;2023-03-13T17:53:37;100556.58;;;9.86;87.71
34241;BME280;20503;50.200;19.508;2023-03-13T17:58:45;100552.17;;;9.92;86.51
34241;BME280;20503;50.200;19.508;2023-03-13T18:03:52;100528.20;;;9.87;85.57
34241;BME280;20503;50.200;19.508;2023-03-13T18:09:01;100516.20;;;9.95;84.51
34241;BME280;20503;50.200;19.508;2023-03-13T18:14:09;100502.34;;;9.96;83.51
34241;BME280;20503;50.200;19.508;2023-03-13T18:22:59;100508.89;;;10.02;81.39
34241;BME280;20503;50.200;19.508;2023-03-13T18:28:09;100489.52;;;10.10;80.13
34241;BME280;20503;50.200;19.508;2023-03-13T18:33:14;100482.35;;;10.15;79.20
34241;BME280;20503;50.200;19.508;2023-03-13T18:38:23;100474.34;;;10.20;77.78
34241;BME280;20503;50.200;19.508;2023-03-13T18:43:30;100456.91;;;10.15;76.74
34241;BME280;20503;50.200;19.508;2023-03-13T18:48:38;100454.38;;;10.20;76.47
34241;BME280;20503;50.200;19.508;2023-03-13T18:53:45;100456.26;;;10.19;75.68
34241;BME280;20503;50.200;19.508;2023-03-13T18:58:54;100460.48;;;10.15;75.27
34241;BME280;20503;50.200;19.508;2023-03-13T19:04:00;100453.73;;;10.24;73.80
34241;BME280;20503;50.200;19.508;2023-03-13T19:09:13;100450.13;;;10.30;73.55
34241;BME280;20503;50.200;19.508;2023-03-13T19:14:16;100435.02;;;10.21;73.38
34241;BME280;20503;50.200;19.508;2023-03-13T19:19:24;100441.96;;;10.11;74.11
34241;BME280;20503;50.200;19.508;2023-03-13T19:24:32;100423.91;;;9.90;74.68
34241;BME280;20503;50.200;19.508;2023-03-13T19:29:39;100423.48;;;9.87;74.30
34241;BME280;20503;50.200;19.508;2023-03-13T19:34:47;100418.02;;;9.87;73.89
34241;BME280;20503;50.200;19.508;2023-03-13T19:39:55;100424.98;;;9.70;74.53
34241;BME280;20503;50.200;19.508;2023-03-13T19:45:04;100433.59;;;9.41;75.69
34241;BME280;20503;50.200;19.508;2023-03-13T19:50:19;100411.72;;;9.02;77.15
34241;BME280;20503;50.200;19.508;2023-03-13T19:55:21;100430.83;;;9.02;77.73
34241;BME280;20503;50.200;19.508;2023-03-13T20:00:27;100407.88;;;8.77;79.50
34241;BME280;20503;50.200;19.508;2023-03-13T20:05:35;100405.20;;;8.97;78.27
34241;BME280;20503;50.200;19.508;2023-03-13T20:10:43;100409.84;;;9.16;77.19
34241;BME280;20503;50.200;19.508;2023-03-13T20:15:50;100409.23;;;9.27;76.11
34241;BME280;20503;50.200;19.508;2023-03-13T20:20:58;100411.32;;;9.50;73.86
34241;BME280;20503;50.200;19.508;2023-03-13T20:26:07;100405.00;;;9.69;72.09
34241;BME280;20503;50.200;19.508;2023-03-13T20:31:15;100402.25;;;10.02;69.07
34241;BME280;20503;50.200;19.508;2023-03-13T20:36:22;100399.69;;;10.13;68.23
34241;BME280;20503;50.200;19.508;2023-03-13T20:41:29;100391.32;;;10.52;65.90
34241;BME280;20503;50.200;19.508;2023-03-13T20:46:37;100380.16;;;10.54;65.59
34241;BME280;20503;50.200;19.508;2023-03-13T20:51:45;100363.38;;;10.81;64.20
34241;BME280;20503;50.200;19.508;2023-03-13T20:56:52;100364.80;;;10.90;63.60
34241;BME280;20503;50.200;19.508;2023-03-13T21:02:00;100349.06;;;11.10;62.18
34241;BME280;20503;50.200;19.508;2023-03-13T21:07:08;100344.48;;;11.04;62.49
34241;BME280;20503;50.200;19.508;2023-03-13T21:12:15;100339.66;;;11.00;62.74
34241;BME280;20503;50.200;19.508;2023-03-13T21:17:24;100340.39;;;11.13;62.50
34241;BME280;20503;50.200;19.508;2023-03-13T21:22:31;100327.75;;;11.12;62.43
34241;BME280;20503;50.200;19.508;2023-03-13T21:27:39;100319.74;;;11.35;61.37
34241;BME280;20503;50.200;19.508;2023-03-13T21:32:46;100323.95;;;11.37;61.21
34241;BME280;20503;50.200;19.508;2023-03-13T21:37:54;100312.07;;;11.43;61.42
34241;BME280;20503;50.200;19.508;2023-03-13T21:43:01;100314.54;;;11.51;60.96
34241;BME280;20503;50.200;19.508;2023-03-13T21:48:09;100302.02;;;11.62;60.67
34241;BME280;20503;50.200;19.508;2023-03-13T21:53:16;100264.59;;;11.49;60.66
34241;BME280;20503;50.200;19.508;2023-03-13T21:58:24;100284.23;;;11.46;61.53
34241;BME280;20503;50.200;19.508;2023-03-13T22:03:31;100278.64;;;11.35;61.75
34241;BME280;20503;50.200;19.508;2023-03-13T22:08:39;100292.30;;;11.17;62.59
34241;BME280;20503;50.200;19.508;2023-03-13T22:13:46;100292.81;;;11.08;62.64
34241;BME280;20503;50.200;19.508;2023-03-13T22:18:53;100279.06;;;10.90;63.28
34241;BME280;20503;50.200;19.508;2023-03-13T22:24:01;100280.51;;;10.68;64.16
34241;BME280;20503;50.200;19.508;2023-03-13T22:29:09;100272.24;;;10.43;65.41
34241;BME280;20503;50.200;19.508;2023-03-13T22:34:16;100271.36;;;10.49;64.78
34241;BME280;20503;50.200;19.508;2023-03-13T22:39:23;100276.56;;;10.26;65.63
34241;BME280;20503;50.200;19.508;2023-03-13T22:44:31;100251.47;;;10.36;65.22
34241;BME280;20503;50.200;19.508;2023-03-13T22:49:38;100249.99;;;10.33;65.68
34241;BME280;20503;50.200;19.508;2023-03-13T22:54:45;100233.09;;;10.43;65.36
34241;BME280;20503;50.200;19.508;2023-03-13T22:59:54;100228.96;;;10.34;65.65
34241;BME280;20503;50.200;19.508;2023-03-13T23:05:00;100202.05;;;10.31;66.09
34241;BME280;20503;50.200;19.508;2023-03-13T23:10:10;100190.16;;;10.43;65.88
34241;BME280;20503;50.200;19.508;2023-03-13T23:15:15;100185.81;;;10.60;65.17
34241;BME280;20503;50.200;19.508;2023-03-13T23:20:23;100188.82;;;10.52;65.18
34241;BME280;20503;50.200;19.508;2023-03-13T23:25:30;100185.87;;;10.78;64.14
34241;BME280;20503;50.200;19.508;2023-03-13T23:30:37;100170.05;;;10.80;63.69
34241;BME280;20503;50.200;19.508;2023-03-13T23:35:45;100155.84;;;10.90;63.55
34241;BME280;20503;50.200;19.508;2023-03-13T23:40:52;100170.77;;;11.12;62.59
34241;BME280;20503;50.200;19.508;2023-03-13T23:46:00;100156.32;;;11.05;62.01
34241;BME280;20503;50.200;19.508;2023-03-13T23:51:07;100150.17;;;11.09;62.10
34241;BME280;20503;50.200;19.508;2023-03-13T23:56:16;100170.70;;;11.18;61.51
